Billings, MT

9:47 PM MDT on July 02, 2015 (GMT -0600)
South of Castle Rock Park | | Change Station
CLOSE
Current Station
Personal Weather Station
Location: Billings, MT
Elevation: 3297 ft
Nearby Weather Stations

Elev 3297 ft 45.82 °N, 108.50 °W | Updated 3 seconds ago

Clear
Clear
78.8 °F
Feels Like 79 °F
N
0.9
Wind Variable Wind from NNE
Gusts 1.8 mph

Today
High -- | Low -- °F
--% Chance of Precip.
Yesterday
High -- | Low -- °F
Precip. -- in
5:28 AM 9:07 PM
Full, 99% visible
Pressure 30.00 in
Visibility 9.0 miles
Clouds Clear
Heat Index 79 °F
Dew Point 53 °F
Humidity 40%
Rainfall -9999.00 in
Snow Depth Not available.
UV 0 out of 12
Pollen 5.60 out of 12
Air Quality Not available.
Flu Activity Not available.
METAR KBIL 030253Z 07006KT 9SM CLR 25/10 A3010 RMK AO2 SLP159 HZ ALQDS T02500100 53002

More Conditions Fewer Conditions

Pressure 30.00 in
Visibility 9.0 miles
Clouds Clear
Heat Index 79 °F
Dew Point 53 °F
Humidity 40%
Rainfall -9999.00 in
Snow Depth Not available.
UV 0 out of 12
Pollen 5.60 out of 12
Air Quality Not available.
Flu Activity Not available.
METAR KBIL 030253Z 07006KT 9SM CLR 25/10 A3010 RMK AO2 SLP159 HZ ALQDS T02500100 53002

More Conditions Fewer Conditions

10-Day Weather Forecast

×

Almanac

Astronomy

Jul. 02, 2015 Rise Set
Actual Time
Civil Twilight
Nautical Twilight
Astronomical Twilight
Moon
Length of Visible Light
Length of Day
Tomorrow will be .
, % of the Moon is Illuminated

Today's Extremes

State Highs State Lows

Community

WunderPhotos

Upload Photos

1,834,615 photos uploaded!

WunderBlogs® & News

Nearby

Air Quality

  Air Quality AQ Index Pollutant
Not available.

Snow Depth

Station Depth Elevation

Earthquake Activity

City Distance Mag. Time & Date
Minimum magnitude displayed is 2.5.

Coastal Water Temperatures

Place Temperature

Stations

Nearby Weather Stations

Station Location Temp. Windchill Dew Point Humidity Wind Precip. Elev Updated Type